Latest Weather Observations for Coen Airport

IDQ60801

Issued at 11:35 am EST Thursday 18 September 2014 (issued every 30 minutes, with the page automatically refreshed every 10 minutes)

About weather observations | Map of weather stations | Latest weather observations for QLD | Other Formats
Station Details ID: 027073 Name: COEN AIRPORT Lat: -13.76 Lon: 143.12 Height: 159.3 m
Data from the previous 72 hours. | See also: Recent months at Coen Airport
Date/Time
EST
Temp
°C
App
Temp
°C
Dew
Point
Rel
Hum
%
Delta-T
°C
Wind Press
QNH
hPa
Press
MSL
hPa
Rain
since 9 am
mm
Dir
 
Spd
km/h
Gust
km/h
Spd
kts
Gust
kts
18/11:30am 31.6 27.7 8.6 24 12.9 E 19 32 10 17 1016.5 - 0.0
18/11:00am 31.6 27.3 9.2 25 12.7 E 22 35 12 19 1016.8 - 0.0
18/10:30am 29.4 28.2 11.5 33 10.4 ESE 9 15 5 8 1017.2 - 0.0
18/10:00am 27.8 26.9 13.7 42 8.4 SSW 11 15 6 8 1017.3 - 0.0
18/09:30am 25.4 25.6 14.8 52 6.4 S 7 11 4 6 1017.5 - 0.0
18/09:00am 24.1 24.5 14.8 56 5.6 SSE 6 11 3 6 1017.5 1016.7 0.0
18/08:30am 22.7 23.7 15.3 63 4.4 WSW 4 9 2 5 1017.3 - 0.0
18/08:00am 21.0 22.0 15.3 70 3.4 SW 4 7 2 4 1017.1 - 0.0
18/07:30am 18.2 19.7 14.7 80 2.0 CALM 0 0 0 0 1016.7 - 0.0
18/07:00am 15.8 17.2 14.5 92 0.7 CALM 0 0 0 0 1016.3 - 0.0
18/06:30am 13.7 14.4 12.3 91 0.8 CALM 0 0 0 0 1016.2 - 0.0
18/06:00am 14.0 13.5 12.6 91 0.8 SSE 7 9 4 5 1015.6 1014.9 0.0
18/05:30am 13.9 13.9 12.3 90 0.9 S 4 7 2 4 1015.3 - 0.0
18/05:00am 14.0 14.8 12.4 90 0.9 CALM 0 0 0 0 1015.1 - 0.0
18/04:30am 14.8 14.9 12.8 88 1.1 S 4 6 2 3 1015.1 - 0.0
18/04:00am 15.4 16.0 13.1 86 1.3 SW 2 7 1 4 1015.1 - 0.0
18/03:30am 15.8 16.9 13.5 86 1.3 CALM 0 6 0 3 1015.1 - 0.0
18/03:00am 16.6 17.2 14.2 86 1.4 WSW 4 13 2 7 1015.1 1014.3 0.0
18/02:30am 17.1 17.2 14.4 84 1.6 SW 7 11 4 6 1015.2 - 0.0
18/02:00am 16.8 16.1 13.1 79 2.1 WSW 9 11 5 6 1015.4 - 0.0
18/01:30am 17.3 16.5 12.8 75 2.5 S 9 17 5 9 1015.5 - 0.0
18/01:00am 19.3 18.1 14.1 72 3.0 W 13 15 7 8 1015.7 - 0.0
18/12:30am 18.8 18.7 13.4 71 3.1 WSW 6 11 3 6 1015.7 - 0.0
18/12:00am 17.6 17.4 13.7 78 2.2 WSW 7 9 4 5 1015.9 1015.1 0.0
 
Date/Time
EST
Temp
°C
App
Temp
°C
Dew
Point
Rel
Hum
%
Delta-T
°C
Wind Press
QNH
hPa
Press
MSL
hPa
Rain
since 9 am
mm
Dir
 
Spd
km/h
Gust
km/h
Spd
kts
Gust
kts
17/11:30pm 17.8 18.7 13.9 78 2.2 W 2 7 1 4 1016.0 - 0.0
17/11:00pm 18.4 18.4 13.5 73 2.8 W 6 9 3 5 1016.1 - 0.0
17/10:30pm 19.0 19.1 13.8 72 3.0 SW 6 9 3 5 1016.1 - 0.0
17/10:00pm 20.3 20.7 13.7 66 3.8 W 4 7 2 4 1015.9 - 0.0
17/09:30pm 22.7 21.6 13.2 55 5.5 E 11 17 6 9 1015.7 - 0.0
17/09:00pm 21.1 22.2 14.5 66 3.9 NNE 2 7 1 4 1015.5 1014.8 0.0
17/08:30pm 22.1 21.1 15.5 66 4.0 NNE 15 22 8 12 1015.1 - 0.0
17/08:00pm 22.6 21.7 15.9 66 4.1 NE 15 22 8 12 1014.7 - 0.0
17/07:30pm 22.5 21.4 16.3 68 3.8 NE 17 24 9 13 1014.4 - 0.0
17/07:00pm 23.1 23.1 16.2 65 4.2 NNE 11 19 6 10 1014.2 - 0.0
17/06:30pm 23.8 22.5 15.8 61 4.9 NE 17 24 9 13 1013.8 - 0.0
17/06:00pm 24.9 23.2 15.8 57 5.6 NE 19 32 10 17 1013.5 1012.7 0.0
17/05:30pm 26.3 24.0 15.7 52 6.5 NE 22 35 12 19 1013.2 - 0.0
17/05:00pm 27.7 25.4 14.7 45 7.9 NE 20 35 11 19 1012.8 - 0.0
17/04:30pm 29.9 27.6 11.9 33 10.6 SE 15 26 8 14 1012.6 - 0.0
17/04:00pm 30.9 28.5 11.3 30 11.4 ESE 15 24 8 13 1012.6 - 0.0
17/03:30pm 30.5 27.8 10.5 29 11.5 E 15 26 8 14 1012.6 - 0.0
17/03:00pm 30.7 26.6 7.8 24 12.6 E 19 28 10 15 1012.8 1011.9 0.0
17/02:30pm 31.2 27.7 8.8 25 12.6 E 17 32 9 17 1013.0 - 0.0
17/02:00pm 32.4 28.3 8.0 22 13.6 ENE 19 28 10 15 1013.1 - 0.0
17/01:30pm 32.2 28.3 7.1 21 13.8 E 17 26 9 14 1013.5 - 0.0
17/01:00pm 32.1 28.0 7.7 22 13.5 NE 19 30 10 16 1014.0 - 0.0
17/12:30pm 32.0 27.3 6.2 20 13.9 ESE 20 30 11 16 1014.4 - 0.0
17/12:00pm 31.1 27.5 8.2 24 12.7 ESE 17 26 9 14 1015.0 1014.2 0.0
17/11:30am 31.4 28.1 9.6 26 12.4 E 17 26 9 14 1015.6 - 0.0
17/11:00am 30.4 25.6 10.4 29 11.5 SE 26 39 14 21 1016.0 - 0.0
17/10:30am 30.0 25.9 10.0 29 11.4 ESE 22 32 12 17 1016.4 - 0.0
17/10:00am 30.3 27.1 9.8 28 11.6 E 17 26 9 14 1016.6 - 0.0
17/09:30am 27.8 25.1 11.8 37 9.3 NE 17 24 9 13 1016.7 - 0.0
17/09:00am 27.9 26.5 13.4 40 8.6 ENE 13 22 7 12 1016.4 1015.7 0.0
17/08:30am 24.5 25.6 15.7 58 5.4 ENE 4 9 2 5 1016.5 - 0.0
17/08:00am 22.5 24.8 16.8 70 3.5 CALM 0 4 0 2 1016.3 - 0.0
17/07:30am 19.3 21.3 16.9 86 1.5 SSW 2 7 1 4 1015.8 - 0.0
17/07:00am 16.3 17.2 15.2 93 0.6 SSE 4 11 2 6 1015.4 - 0.0
17/06:30am 14.5 15.1 13.0 91 0.8 SSE 2 7 1 4 1015.0 - 0.0
17/06:00am 14.9 16.0 13.6 92 0.7 SE 0 9 0 5 1014.9 1014.1 0.0
17/05:30am 15.0 16.1 13.5 91 0.8 CALM 0 0 0 0 1014.6 - 0.0
17/05:00am 15.9 16.5 14.3 90 0.9 SE 4 7 2 4 1014.2 - 0.0
17/04:30am 16.6 18.2 14.8 89 1.0 CALM 0 0 0 0 1014.0 - 0.0
17/04:00am 16.8 18.2 14.3 85 1.4 CALM 0 7 0 4 1013.8 - 0.0
17/03:30am 18.0 19.4 14.3 79 2.1 CALM 0 6 0 3 1014.0 - 0.0
17/03:00am 19.4 19.7 15.9 80 2.1 WSW 9 15 5 8 1014.0 1013.3 0.0
17/02:30am 20.3 20.1 15.7 75 2.8 SW 11 15 6 8 1014.1 - 0.0
17/02:00am 20.0 18.5 15.2 74 2.8 SSW 17 20 9 11 1014.1 - 0.0
17/01:30am 21.6 22.2 15.7 69 3.6 NE 7 15 4 8 1014.0 - 0.0
17/01:00am 19.2 19.7 15.1 77 2.4 S 6 9 3 5 1014.0 - 0.0
17/12:30am 19.3 19.9 15.2 77 2.4 WNW 6 7 3 4 1014.1 - 0.0
17/12:00am 19.7 20.9 14.9 74 2.8 WSW 2 7 1 4 1014.2 1013.4 0.0
 
Date/Time
EST
Temp
°C
App
Temp
°C
Dew
Point
Rel
Hum
%
Delta-T
°C
Wind Press
QNH
hPa
Press
MSL
hPa
Rain
since 9 am
mm
Dir
 
Spd
km/h
Gust
km/h
Spd
kts
Gust
kts
16/11:30pm 20.1 20.4 15.1 73 3.0 W 7 9 4 5 1014.4 - 0.0
16/11:00pm 21.5 22.9 15.3 68 3.7 NNW 2 7 1 4 1014.5 - 0.0
16/10:30pm 21.9 22.1 14.8 64 4.2 N 7 11 4 6 1014.7 - 0.0
16/10:00pm 22.2 21.4 16.0 68 3.8 NNE 15 19 8 10 1014.7 - 0.0
16/09:30pm 22.2 22.6 17.3 74 3.0 NE 11 19 6 10 1014.6 - 0.0
16/09:00pm 22.4 22.7 17.1 72 3.3 NE 11 17 6 9 1014.4 1013.6 0.0
16/08:30pm 22.6 22.9 17.1 71 3.4 NE 11 24 6 13 1014.3 - 0.0
16/08:00pm 22.6 22.5 16.9 70 3.5 NE 13 24 7 13 1013.9 - 0.0
16/07:30pm 22.8 22.3 16.8 69 3.7 NE 15 26 8 14 1013.3 - 0.0
16/07:00pm 23.2 21.8 16.5 66 4.1 NE 19 33 10 18 1012.9 - 0.0
16/06:30pm 23.7 21.5 16.0 62 4.7 NE 22 32 12 17 1012.7 - 0.0
16/06:00pm 25.0 21.4 13.2 48 6.9 NE 24 37 13 20 1012.3 1011.5 0.0
16/05:30pm 26.2 23.3 14.0 47 7.3 NE 22 35 12 19 1012.1 - 0.0
16/05:00pm 26.9 24.1 15.3 49 7.1 NE 24 35 13 19 1011.7 - 0.0
16/04:30pm 28.4 25.5 13.9 41 8.7 NE 22 33 12 18 1011.5 - 0.0
16/04:00pm 28.9 25.1 12.3 36 9.8 NE 24 39 13 21 1011.3 - 0.0
16/03:30pm 29.6 26.0 10.7 31 10.9 ENE 20 33 11 18 1011.2 - 0.0
16/03:00pm 29.2 26.3 12.2 35 10.0 NE 19 37 10 20 1011.5 1010.7 0.0
16/02:30pm 30.1 27.9 12.1 33 10.6 ESE 15 22 8 12 1011.8 - 0.0
16/02:00pm 29.2 26.0 11.3 33 10.4 E 19 32 10 17 1012.2 - 0.0
16/01:30pm 30.2 26.0 9.7 28 11.6 SE 22 30 12 16 1012.5 - 0.0
16/01:00pm 31.1 28.4 8.8 25 12.5 E 13 30 7 16 1012.8 - 0.0
16/12:30pm 31.3 30.0 11.1 29 11.8 SE 9 20 5 11 1013.3 - 0.0
16/12:00pm 31.4 28.7 11.7 29 11.6 ENE 17 28 9 15 1013.9 1013.1 0.0
16/11:30am 30.6 27.6 12.0 32 11.0 ENE 19 28 10 15 1014.6 - 0.0
16/11:00am 29.6 27.4 13.4 37 9.7 NE 17 32 9 17 1015.2 - 0.0
16/10:30am 28.8 27.4 13.5 39 9.2 NE 13 24 7 13 1015.6 - 0.0
16/10:00am 27.2 27.0 14.6 46 7.6 S 9 13 5 7 1015.8 - 0.0
16/09:30am 26.1 26.7 15.2 51 6.6 WSW 6 9 3 5 1016.0 - 0.0
16/09:00am 25.4 26.1 15.7 55 5.9 WNW 6 9 3 5 1016.0 1015.3 0.0
16/08:30am 23.5 24.3 16.3 64 4.4 SW 7 11 4 6 1016.0 - 0.0
16/08:00am 21.1 22.3 16.9 77 2.6 SW 6 9 3 5 1015.9 - 0.0
16/07:30am 18.0 19.9 15.8 87 1.3 CALM 0 0 0 0 1015.6 - 0.0
16/07:00am 15.8 16.9 14.7 93 0.6 S 2 7 1 4 1015.2 - 0.0
16/06:30am 14.4 15.3 12.8 90 0.9 CALM 0 0 0 0 1014.8 - 0.0
16/06:00am 14.7 15.7 13.2 91 0.8 CALM 0 0 0 0 1014.4 1013.6 0.0
16/05:30am 15.3 16.6 14.0 92 0.7 CALM 0 0 0 0 1014.2 - 0.0
16/05:00am 15.3 15.6 13.5 89 1.0 SSW 4 9 2 5 1013.9 - 0.0
16/04:30am 16.0 17.4 14.5 91 0.9 CALM 0 0 0 0 1013.7 - 0.0
16/04:00am 16.0 17.4 14.4 90 0.9 CALM 0 0 0 0 1013.7 - 0.0
16/03:30am 16.2 17.7 14.6 90 0.9 CALM 0 0 0 0 1013.5 - 0.0
16/03:00am 16.2 17.5 14.2 88 1.1 CALM 0 0 0 0 1013.6 1012.8 0.0
16/02:30am 17.1 18.7 14.9 87 1.3 CALM 0 0 0 0 1013.8 - 0.0
16/02:00am 18.4 19.9 15.6 84 1.7 SSE 2 9 1 5 1014.0 - 0.0
16/01:30am 19.2 19.5 16.1 82 1.9 SSW 9 13 5 7 1014.1 - 0.0
16/01:00am 19.8 20.2 16.4 81 2.1 WSW 9 15 5 8 1014.3 - 0.0
16/12:30am 20.4 20.4 16.2 77 2.5 WSW 11 15 6 8 1014.3 - 0.0
16/12:00am 21.6 23.8 16.6 73 3.1 NNE 0 7 0 4 1014.0 1013.3 0.0
 
Date/Time
EST
Temp
°C
App
Temp
°C
Dew
Point
Rel
Hum
%
Delta-T
°C
Wind Press
QNH
hPa
Press
MSL
hPa
Rain
since 9 am
mm
Dir
 
Spd
km/h
Gust
km/h
Spd
kts
Gust
kts
15/11:30pm 22.1 22.0 16.1 69 3.6 NE 11 20 6 11 1014.1 - 0.0
15/11:00pm 22.2 22.2 16.2 69 3.7 NE 11 20 6 11 1014.1 - 0.0
15/10:30pm 22.1 22.3 16.8 72 3.3 NE 11 20 6 11 1014.1 - 0.0
15/10:00pm 22.1 21.7 17.2 74 3.0 NE 15 22 8 12 1013.8 - 0.0
15/09:30pm 22.4 21.9 16.9 71 3.4 NE 15 22 8 12 1013.8 - 0.0
15/09:00pm 22.5 21.1 16.5 69 3.7 ENE 19 35 10 19 1013.6 1012.9 0.0
15/08:30pm 22.3 22.0 15.4 65 4.1 NE 11 15 6 8 1013.4 - 0.0
15/08:00pm 22.3 22.1 15.6 66 4.0 NE 11 17 6 9 1013.0 - 0.0
15/07:30pm 22.3 21.9 16.1 68 3.8 NE 13 20 7 11 1012.7 - 0.0
15/07:00pm 22.7 21.5 16.0 66 4.1 NE 17 26 9 14 1012.5 - 0.0
15/06:30pm 23.5 21.4 15.3 60 4.9 NE 20 28 11 15 1012.1 - 0.0
15/06:00pm 24.5 22.3 16.0 59 5.2 NE 22 32 12 17 1011.8 1010.9 0.0
15/05:30pm 26.3 24.1 16.0 53 6.3 NE 22 35 12 19 1011.6 - 0.0
15/05:00pm 28.3 26.0 14.2 42 8.5 NE 19 32 10 17 1011.4 - 0.0
15/04:30pm 28.0 25.4 12.0 37 9.3 ENE 17 32 9 17 1011.3 - 0.0
15/04:00pm 28.6 24.4 12.5 37 9.5 NNE 26 35 14 19 1011.3 - 0.0
15/03:30pm 29.9 27.2 13.6 36 9.8 NNE 20 37 11 20 1011.1 - 0.0
15/03:00pm 30.3 27.6 13.6 36 10.1 NE 20 37 11 20 1011.3 1010.5 0.0
15/02:30pm 30.2 28.7 13.0 34 10.3 E 13 19 7 10 1011.7 - 0.0
15/02:00pm 31.1 29.4 9.9 27 12.1 SSE 9 17 5 9 1012.1 - 0.0
15/01:30pm 30.3 27.7 13.1 34 10.3 NNE 19 35 10 19 1012.4 - 0.0
15/01:00pm 30.6 28.3 13.0 34 10.5 NE 17 28 9 15 1012.8 - 0.0
15/12:30pm 30.2 27.2 12.1 32 10.7 NNE 19 28 10 15 1013.2 - 0.0
15/12:00pm 29.4 27.1 11.9 34 10.2 NNE 15 22 8 12 1013.8 1013.0 0.0

Other Formats:

Comma delimited format used in spreadsheet applications
http://www.bom.gov.au/fwo/IDQ60801/IDQ60801.94183.axf

JavaScript Object Notation format (JSON) in row-major order
http://www.bom.gov.au/fwo/IDQ60801/IDQ60801.94183.json